Time;durP1;ratioP1;P1;durP2;ratioP2;P2;SDS_P1;SDS_P2;PMS_P1;PMS_P2;Temp;Humidity;BMP_temperature;BMP_pressure;BME280_temperature;BME280_humidity;BME280_pressure;Samples;Min_cycle;Max_cycle;Signal;HPM_P1;HPM_P2
2023/09/27 00:00:57;;;;;;;9.88;7.65;;;;;;;;;;5043116;28;20045;-60
2023/09/27 00:03:23;;;;;;;9.93;7.55;;;;;;;;;;5056160;28;20057;-60
2023/09/27 00:05:50;;;;;;;8.48;6.97;;;;;;;;;;5055821;28;20495;-59
2023/09/27 00:08:16;;;;;;;10.57;7.20;;;;;;;;;;5063935;28;20056;-57
2023/09/27 00:10:43;;;;;;;8.48;7.15;;;;;;;;;;5063638;28;20147;-59
2023/09/27 00:13:09;;;;;;;12.45;7.30;;;;;;;;;;5063320;28;20674;-59
2023/09/27 00:15:37;;;;;;;10.10;7.60;;;;;;;;;;5062619;28;20057;-59
2023/09/27 00:18:04;;;;;;;8.43;7.28;;;;;;;;;;5064165;28;20053;-60
2023/09/27 00:20:32;;;;;;;9.80;7.47;;;;;;;;;;5063775;28;20466;-59
2023/09/27 00:22:59;;;;;;;8.95;7.05;;;;;;;;;;5049217;28;20679;-58
2023/09/27 00:25:25;;;;;;;7.90;6.93;;;;;;;;;;5042837;28;20610;-58
2023/09/27 00:27:52;;;;;;;8.88;7.18;;;;;;;;;;5043349;28;20487;-60
2023/09/27 00:30:18;;;;;;;8.77;7.38;;;;;;;;;;5043832;28;20053;-60
2023/09/27 00:32:45;;;;;;;8.77;7.03;;;;;;;;;;5067913;28;20048;-60
2023/09/27 00:35:18;;;;;;;7.90;6.50;;;;;;;;;;5057036;28;20169;-59
2023/09/27 00:37:46;;;;;;;8.80;7.65;;;;;;;;;;5043069;28;20111;-60
2023/09/27 00:40:14;;;;;;;10.32;7.53;;;;;;;;;;5042856;28;20050;-59
2023/09/27 00:42:41;;;;;;;8.48;7.00;;;;;;;;;;5042965;28;20096;-60
2023/09/27 00:45:07;;;;;;;11.95;7.35;;;;;;;;;;5051894;28;20053;-60
2023/09/27 00:47:34;;;;;;;9.18;7.03;;;;;;;;;;5073349;28;20048;-59
2023/09/27 00:50:01;;;;;;;8.85;6.97;;;;;;;;;;5082092;28;20513;-60
2023/09/27 00:52:27;;;;;;;7.53;6.78;;;;;;;;;;5061542;28;20053;-57
2023/09/27 00:54:54;;;;;;;9.00;7.35;;;;;;;;;;5061985;28;20596;-60
2023/09/27 00:57:21;;;;;;;7.53;6.75;;;;;;;;;;5062498;28;20103;-59
2023/09/27 00:59:48;;;;;;;11.13;8.50;;;;;;;;;;5062426;28;20533;-59
2023/09/27 01:02:14;;;;;;;14.13;7.20;;;;;;;;;;5052112;28;20065;-60
2023/09/27 01:04:41;;;;;;;9.73;6.97;;;;;;;;;;5061504;28;20519;-58
2023/09/27 01:07:07;;;;;;;12.68;7.68;;;;;;;;;;5062686;28;20334;-60
2023/09/27 01:09:34;;;;;;;9.45;7.85;;;;;;;;;;5062492;28;20099;-60
2023/09/27 01:12:00;;;;;;;10.02;7.07;;;;;;;;;;5063592;28;20589;-60
2023/09/27 01:14:27;;;;;;;9.27;7.65;;;;;;;;;;5062934;28;20060;-60
2023/09/27 01:16:53;;;;;;;8.27;7.43;;;;;;;;;;5061088;28;20473;-59
2023/09/27 01:19:20;;;;;;;11.60;8.02;;;;;;;;;;5062729;28;20100;-58
2023/09/27 01:21:46;;;;;;;9.73;8.10;;;;;;;;;;5061846;28;20057;-60
2023/09/27 01:24:13;;;;;;;11.07;8.65;;;;;;;;;;5062078;28;20057;-59
2023/09/27 01:26:40;;;;;;;10.35;8.60;;;;;;;;;;5047301;28;20065;-58
2023/09/27 01:29:06;;;;;;;12.95;8.80;;;;;;;;;;5052488;28;20060;-58
2023/09/27 01:31:33;;;;;;;11.80;9.85;;;;;;;;;;5044180;28;20496;-59
2023/09/27 01:33:59;;;;;;;11.48;10.27;;;;;;;;;;5043113;28;20532;-59
2023/09/27 01:36:25;;;;;;;13.13;10.40;;;;;;;;;;5042058;28;20576;-59
2023/09/27 01:38:52;;;;;;;10.90;9.77;;;;;;;;;;5045093;28;20148;-60
2023/09/27 01:41:18;;;;;;;11.35;10.15;;;;;;;;;;5060109;28;20540;-59
2023/09/27 01:43:45;;;;;;;11.20;10.10;;;;;;;;;;5061779;28;20769;-60
2023/09/27 01:46:11;;;;;;;12.25;10.65;;;;;;;;;;5061879;28;20130;-60
2023/09/27 01:48:39;;;;;;;11.02;9.93;;;;;;;;;;5062003;28;20595;-59
2023/09/27 01:51:05;;;;;;;11.60;10.35;;;;;;;;;;5062442;28;20146;-58
2023/09/27 01:53:32;;;;;;;11.95;10.38;;;;;;;;;;5061305;28;20056;-59
2023/09/27 01:55:58;;;;;;;10.50;9.45;;;;;;;;;;5062496;28;20135;-59
2023/09/27 01:58:25;;;;;;;11.30;9.98;;;;;;;;;;5055504;28;20169;-59
2023/09/27 02:00:51;;;;;;;15.85;10.57;;;;;;;;;;5057289;28;20106;-60
2023/09/27 02:03:18;;;;;;;12.73;10.63;;;;;;;;;;5042018;28;20140;-59
2023/09/27 02:05:44;;;;;;;14.90;10.45;;;;;;;;;;5044176;28;20097;-60
2023/09/27 02:08:11;;;;;;;12.68;10.70;;;;;;;;;;5045913;28;20053;-60
2023/09/27 02:10:38;;;;;;;12.90;10.65;;;;;;;;;;5044700;28;20059;-60
2023/09/27 02:13:05;;;;;;;12.25;10.18;;;;;;;;;;5063519;28;20522;-60
2023/09/27 02:15:31;;;;;;;14.25;10.00;;;;;;;;;;5065458;28;20435;-60
2023/09/27 02:17:58;;;;;;;15.00;9.93;;;;;;;;;;5065427;28;20057;-60
2023/09/27 02:20:24;;;;;;;11.57;9.88;;;;;;;;;;5065360;28;20136;-59
2023/09/27 02:22:53;;;;;;;12.10;10.82;;;;;;;;;;5065209;28;20080;-60
2023/09/27 02:25:20;;;;;;;12.20;10.90;;;;;;;;;;5065019;28;20072;-59
2023/09/27 02:27:46;;;;;;;11.88;10.25;;;;;;;;;;5065074;28;20088;-60
2023/09/27 02:30:14;;;;;;;12.95;10.35;;;;;;;;;;5065148;28;20083;-60
2023/09/27 02:32:41;;;;;;;10.98;9.88;;;;;;;;;;5064893;28;20135;-60
2023/09/27 02:35:11;;;;;;;12.48;10.85;;;;;;;;;;5064173;28;20056;-59
2023/09/27 02:37:38;;;;;;;11.88;10.43;;;;;;;;;;5064324;28;20056;-58
2023/09/27 02:40:11;;;;;;;13.07;10.30;;;;;;;;;;5065954;28;20055;-60
2023/09/27 02:42:39;;;;;;;11.90;10.02;;;;;;;;;;5064786;28;20060;-58
2023/09/27 02:45:07;;;;;;;11.23;9.98;;;;;;;;;;5063872;28;20451;-59
2023/09/27 02:47:34;;;;;;;14.13;11.43;;;;;;;;;;5063719;28;20120;-59
2023/09/27 02:50:02;;;;;;;13.73;11.30;;;;;;;;;;5064628;28;20060;-59
2023/09/27 02:52:29;;;;;;;13.20;10.38;;;;;;;;;;5064515;28;20045;-60
2023/09/27 02:54:56;;;;;;;11.27;10.05;;;;;;;;;;5064860;28;20545;-60
2023/09/27 02:57:23;;;;;;;15.70;10.13;;;;;;;;;;5064827;28;20514;-60
2023/09/27 02:59:49;;;;;;;11.43;10.23;;;;;;;;;;5064493;28;20776;-59
2023/09/27 03:02:16;;;;;;;12.88;10.38;;;;;;;;;;5064628;28;20448;-59
2023/09/27 03:04:42;;;;;;;13.35;10.45;;;;;;;;;;5062518;28;20056;-60
2023/09/27 03:07:09;;;;;;;12.13;10.73;;;;;;;;;;5064365;28;20053;-60
2023/09/27 03:09:36;;;;;;;13.00;10.43;;;;;;;;;;5064495;28;20522;-59
2023/09/27 03:12:03;;;;;;;11.60;10.38;;;;;;;;;;5065270;28;20534;-59
2023/09/27 03:14:29;;;;;;;11.25;10.15;;;;;;;;;;5063811;28;20452;-58
2023/09/27 03:16:56;;;;;;;14.35;10.88;;;;;;;;;;5059538;28;20573;-59
2023/09/27 03:19:22;;;;;;;12.95;10.57;;;;;;;;;;5063910;28;20085;-59
2023/09/27 03:21:48;;;;;;;12.05;10.70;;;;;;;;;;5064596;28;20056;-60
2023/09/27 03:24:15;;;;;;;12.88;10.80;;;;;;;;;;5064111;28;20053;-57
2023/09/27 03:26:42;;;;;;;12.30;11.00;;;;;;;;;;5063503;28;20084;-59
2023/09/27 03:29:08;;;;;;;12.27;11.05;;;;;;;;;;5064509;28;20111;-60
2023/09/27 03:31:35;;;;;;;12.88;10.90;;;;;;;;;;5064638;28;20056;-59
2023/09/27 03:34:01;;;;;;;12.90;11.00;;;;;;;;;;5064258;28;20053;-58
2023/09/27 03:36:28;;;;;;;12.75;11.43;;;;;;;;;;5056891;28;20509;-59
2023/09/27 03:38:54;;;;;;;11.75;10.43;;;;;;;;;;5042809;28;20052;-59
2023/09/27 03:41:21;;;;;;;14.95;11.60;;;;;;;;;;5052136;28;20140;-60
2023/09/27 03:43:50;;;;;;;15.13;11.18;;;;;;;;;;5064379;28;20065;-59
2023/09/27 03:46:16;;;;;;;13.95;11.05;;;;;;;;;;5064215;28;20145;-59
2023/09/27 03:48:43;;;;;;;12.77;10.75;;;;;;;;;;5063140;28;20499;-60
2023/09/27 03:51:09;;;;;;;12.07;10.77;;;;;;;;;;5064273;28;20906;-59
2023/09/27 03:53:36;;;;;;;14.35;10.68;;;;;;;;;;5064253;28;20564;-60
2023/09/27 03:56:02;;;;;;;12.68;11.38;;;;;;;;;;5063439;28;20465;-59
2023/09/27 03:58:29;;;;;;;12.90;11.50;;;;;;;;;;5063485;28;20053;-59
2023/09/27 04:00:55;;;;;;;13.05;11.02;;;;;;;;;;5063799;28;20144;-60
2023/09/27 04:03:22;;;;;;;15.75;11.43;;;;;;;;;;5063243;28;20572;-59
2023/09/27 04:05:48;;;;;;;13.25;11.80;;;;;;;;;;5061078;28;20551;-60
2023/09/27 04:08:17;;;;;;;14.88;12.05;;;;;;;;;;5062876;28;20508;-59
2023/09/27 04:10:44;;;;;;;17.20;11.55;;;;;;;;;;5061726;28;20060;-59
2023/09/27 04:13:10;;;;;;;19.08;12.38;;;;;;;;;;5061583;28;20366;-60
2023/09/27 04:15:36;;;;;;;13.77;12.32;;;;;;;;;;5050973;28;20604;-58
2023/09/27 04:18:03;;;;;;;14.55;11.73;;;;;;;;;;5061402;28;20485;-60
2023/09/27 04:20:31;;;;;;;14.95;11.85;;;;;;;;;;5061741;28;20151;-59
2023/09/27 04:23:02;;;;;;;15.52;11.85;;;;;;;;;;5063106;28;20088;-60
2023/09/27 04:25:28;;;;;;;12.18;10.85;;;;;;;;;;5062947;28;20143;-59
2023/09/27 04:27:55;;;;;;;15.70;12.68;;;;;;;;;;5060155;28;20049;-60
2023/09/27 04:30:22;;;;;;;15.35;12.63;;;;;;;;;;5061774;28;20053;-59
2023/09/27 04:32:52;;;;;;;15.00;12.52;;;;;;;;;;5062814;28;20103;-59
2023/09/27 04:35:19;;;;;;;16.38;12.38;;;;;;;;;;5062325;28;20049;-60
2023/09/27 04:37:47;;;;;;;12.40;11.10;;;;;;;;;;5060337;28;20053;-60
2023/09/27 04:40:14;;;;;;;14.65;11.88;;;;;;;;;;5062874;28;20060;-59
2023/09/27 04:42:41;;;;;;;13.90;12.32;;;;;;;;;;5062070;28;20139;-60
2023/09/27 04:45:10;;;;;;;15.65;12.18;;;;;;;;;;5070456;28;20144;-59
2023/09/27 04:47:36;;;;;;;15.70;11.75;;;;;;;;;;5066936;28;20068;-60
2023/09/27 04:50:03;;;;;;;13.55;12.07;;;;;;;;;;5064126;28;20140;-60
2023/09/27 04:52:30;;;;;;;13.18;11.93;;;;;;;;;;5065834;28;20049;-60
2023/09/27 04:54:59;;;;;;;13.82;12.07;;;;;;;;;;5063083;28;20140;-60
2023/09/27 04:57:25;;;;;;;13.88;12.00;;;;;;;;;;5062912;28;20467;-60
2023/09/27 04:59:52;;;;;;;15.60;12.95;;;;;;;;;;5062070;28;20060;-60
2023/09/27 05:02:19;;;;;;;13.65;12.25;;;;;;;;;;5061381;28;20512;-60
2023/09/27 05:04:47;;;;;;;14.02;11.95;;;;;;;;;;5062968;28;20041;-60
2023/09/27 05:07:17;;;;;;;17.00;12.73;;;;;;;;;;5062219;28;20056;-60
2023/09/27 05:09:43;;;;;;;19.27;12.73;;;;;;;;;;5063292;28;20063;-58
2023/09/27 05:12:11;;;;;;;14.38;12.85;;;;;;;;;;5063288;28;20405;-59
2023/09/27 05:14:37;;;;;;;16.25;12.50;;;;;;;;;;5062138;28;20134;-59
2023/09/27 05:17:04;;;;;;;14.27;12.68;;;;;;;;;;5062995;28;20497;-60
2023/09/27 05:19:30;;;;;;;14.63;12.02;;;;;;;;;;5062757;28;20103;-60
2023/09/27 05:21:58;;;;;;;14.48;12.85;;;;;;;;;;5062394;28;20053;-59
2023/09/27 05:24:25;;;;;;;14.95;12.32;;;;;;;;;;5062925;28;20077;-60
2023/09/27 05:26:51;;;;;;;12.93;11.48;;;;;;;;;;5062066;28;20061;-59
2023/09/27 05:29:18;;;;;;;13.65;11.68;;;;;;;;;;5061997;28;20107;-59
2023/09/27 05:31:45;;;;;;;20.42;12.55;;;;;;;;;;5058916;28;20040;-59
2023/09/27 05:34:11;;;;;;;17.17;13.13;;;;;;;;;;5062713;28;20543;-60
2023/09/27 05:36:40;;;;;;;15.20;12.32;;;;;;;;;;5062241;28;20136;-60
2023/09/27 05:39:08;;;;;;;15.85;12.85;;;;;;;;;;5074562;28;20052;-60
2023/09/27 05:41:35;;;;;;;14.95;13.35;;;;;;;;;;5067874;28;20059;-60
2023/09/27 05:44:03;;;;;;;15.52;13.90;;;;;;;;;;5066522;28;20053;-60
2023/09/27 05:46:30;;;;;;;17.95;13.82;;;;;;;;;;5066014;28;20556;-60
2023/09/27 05:48:57;;;;;;;15.65;14.00;;;;;;;;;;5065925;28;20144;-60
2023/09/27 05:51:23;;;;;;;19.15;12.77;;;;;;;;;;5065768;28;20144;-60
2023/09/27 05:53:52;;;;;;;15.00;13.40;;;;;;;;;;5060274;28;20057;-59
2023/09/27 05:56:18;;;;;;;16.77;14.57;;;;;;;;;;5061648;28;20099;-58
2023/09/27 05:58:45;;;;;;;15.95;13.20;;;;;;;;;;5064443;28;20084;-60
2023/09/27 06:01:12;;;;;;;14.48;12.98;;;;;;;;;;5059633;28;20060;-58
2023/09/27 06:03:39;;;;;;;17.83;13.63;;;;;;;;;;5062360;28;20118;-59
2023/09/27 06:06:05;;;;;;;14.05;12.52;;;;;;;;;;5065632;28;20049;-59
2023/09/27 06:08:32;;;;;;;15.98;13.82;;;;;;;;;;5063017;28;20499;-59
2023/09/27 06:10:59;;;;;;;18.70;13.80;;;;;;;;;;5065277;28;20621;-60
2023/09/27 06:13:27;;;;;;;17.73;14.35;;;;;;;;;;5064984;28;20049;-59
2023/09/27 06:15:54;;;;;;;15.52;13.30;;;;;;;;;;5049362;28;20547;-60
2023/09/27 06:18:21;;;;;;;16.25;13.82;;;;;;;;;;5065086;28;20055;-59
2023/09/27 06:20:48;;;;;;;17.33;13.77;;;;;;;;;;5058823;28;20076;-61
2023/09/27 06:23:14;;;;;;;20.48;13.85;;;;;;;;;;5056369;28;20049;-58
2023/09/27 06:25:46;;;;;;;18.05;14.57;;;;;;;;;;5063850;28;20059;-60
2023/09/27 06:28:15;;;;;;;24.88;13.88;;;;;;;;;;5058670;28;20049;-60
2023/09/27 06:30:42;;;;;;;17.40;13.63;;;;;;;;;;5055820;28;20618;-58
2023/09/27 06:33:09;;;;;;;16.45;14.38;;;;;;;;;;5054822;28;20053;-59
2023/09/27 06:35:39;;;;;;;16.23;13.95;;;;;;;;;;5059578;28;20059;-59
2023/09/27 06:38:06;;;;;;;20.85;14.75;;;;;;;;;;5063732;28;20389;-59
2023/09/27 06:40:33;;;;;;;23.70;15.43;;;;;;;;;;5062556;28;20052;-60
2023/09/27 06:42:59;;;;;;;19.20;15.35;;;;;;;;;;5062259;28;20068;-60
2023/09/27 06:45:26;;;;;;;19.42;14.90;;;;;;;;;;5069637;28;20052;-61
2023/09/27 06:47:54;;;;;;;17.05;14.32;;;;;;;;;;5066081;28;20170;-60
2023/09/27 06:50:22;;;;;;;17.85;14.38;;;;;;;;;;5062251;28;20057;-59
2023/09/27 06:52:49;;;;;;;15.63;13.98;;;;;;;;;;5062483;28;20057;-59
2023/09/27 06:55:36;;;;;;;18.25;14.07;;;;;;;;;;5062947;28;20057;-58
2023/09/27 06:58:03;;;;;;;17.33;14.18;;;;;;;;;;5062908;28;20502;-60
2023/09/27 07:00:30;;;;;;;18.70;15.10;;;;;;;;;;5062997;28;20532;-60
2023/09/27 07:02:57;;;;;;;21.50;14.45;;;;;;;;;;5062627;28;20056;-60
2023/09/27 07:05:23;;;;;;;16.23;14.27;;;;;;;;;;5062896;28;20049;-56
2023/09/27 07:07:50;;;;;;;19.13;14.10;;;;;;;;;;5063254;28;20508;-60
2023/09/27 07:10:17;;;;;;;17.17;14.82;;;;;;;;;;5062027;28;20076;-60
2023/09/27 07:12:43;;;;;;;20.50;15.40;;;;;;;;;;5062677;28;20577;-60
2023/09/27 07:15:10;;;;;;;17.52;14.77;;;;;;;;;;5064233;28;20057;-59
2023/09/27 07:17:38;;;;;;;19.60;14.88;;;;;;;;;;5061320;28;20056;-60
2023/09/27 07:22:54;;;;;;;18.40;14.10;;;;;;;;;;5062675;28;20045;-60
2023/09/27 07:25:21;;;;;;;17.33;14.32;;;;;;;;;;5062594;28;20057;-59
2023/09/27 07:27:48;;;;;;;21.48;15.02;;;;;;;;;;5063429;28;20536;-60
2023/09/27 07:30:23;;;;;;;16.23;14.43;;;;;;;;;;5062718;28;20579;-59
2023/09/27 07:32:51;;;;;;;16.17;14.45;;;;;;;;;;5053047;28;20057;-60
2023/09/27 07:35:19;;;;;;;22.67;14.60;;;;;;;;;;5046555;28;20118;-60
2023/09/27 07:37:45;;;;;;;16.15;13.20;;;;;;;;;;5063103;28;20080;-59
2023/09/27 07:40:12;;;;;;;16.45;14.73;;;;;;;;;;5074667;28;20056;-59
2023/09/27 07:42:40;;;;;;;17.48;14.75;;;;;;;;;;5063528;28;20526;-59
2023/09/27 07:45:13;;;;;;;17.35;13.93;;;;;;;;;;5064167;28;20140;-59
2023/09/27 07:47:39;;;;;;;18.05;14.77;;;;;;;;;;5043559;28;20148;-59
2023/09/27 07:50:06;;;;;;;16.60;14.68;;;;;;;;;;5053366;28;20049;-59
2023/09/27 07:52:33;;;;;;;20.00;15.57;;;;;;;;;;5060298;28;20559;-60
2023/09/27 07:54:59;;;;;;;19.13;14.95;;;;;;;;;;5061344;28;20613;-60
2023/09/27 07:57:25;;;;;;;19.98;14.90;;;;;;;;;;5061456;28;20515;-60
2023/09/27 07:59:52;;;;;;;22.70;16.58;;;;;;;;;;5052569;28;20059;-59
2023/09/27 08:02:21;;;;;;;19.17;15.80;;;;;;;;;;5061337;28;20504;-60
2023/09/27 08:04:49;;;;;;;20.15;15.82;;;;;;;;;;5064646;28;20512;-59
2023/09/27 08:07:15;;;;;;;19.02;15.77;;;;;;;;;;5061774;28;20503;-59
2023/09/27 08:09:42;;;;;;;18.40;15.65;;;;;;;;;;5062292;28;20448;-60
2023/09/27 08:12:08;;;;;;;18.67;16.13;;;;;;;;;;5057580;28;20103;-59
2023/09/27 08:14:38;;;;;;;23.10;17.58;;;;;;;;;;5062110;28;20115;-61
2023/09/27 08:17:05;;;;;;;23.38;17.23;;;;;;;;;;5062757;28;20056;-60
2023/09/27 08:19:32;;;;;;;18.42;16.33;;;;;;;;;;5062232;28;20142;-59
2023/09/27 08:21:59;;;;;;;23.67;17.38;;;;;;;;;;5061524;28;20486;-60
2023/09/27 08:24:25;;;;;;;22.02;16.40;;;;;;;;;;5061837;28;20535;-59
2023/09/27 08:26:52;;;;;;;26.02;17.35;;;;;;;;;;5061892;28;20427;-60
2023/09/27 08:29:20;;;;;;;22.80;16.88;;;;;;;;;;5062042;28;20053;-60
2023/09/27 08:31:47;;;;;;;22.15;16.73;;;;;;;;;;5061820;28;20139;-59
2023/09/27 08:34:13;;;;;;;23.85;17.38;;;;;;;;;;5060759;28;20068;-60
2023/09/27 08:36:40;;;;;;;22.95;17.33;;;;;;;;;;5061475;28;20053;-60
2023/09/27 08:39:06;;;;;;;23.38;17.80;;;;;;;;;;5061678;28;20499;-59
2023/09/27 08:41:33;;;;;;;22.70;17.60;;;;;;;;;;5060009;28;20060;-59
2023/09/27 08:44:00;;;;;;;19.75;15.98;;;;;;;;;;5055685;28;20045;-58
2023/09/27 08:46:29;;;;;;;23.15;16.40;;;;;;;;;;5060684;28;20578;-60
2023/09/27 08:48:57;;;;;;;19.20;15.65;;;;;;;;;;5050751;28;20057;-59
2023/09/27 08:51:25;;;;;;;21.30;16.48;;;;;;;;;;5061310;28;20135;-60
2023/09/27 08:53:52;;;;;;;20.48;16.25;;;;;;;;;;5057335;28;20056;-60
2023/09/27 08:56:20;;;;;;;19.95;15.68;;;;;;;;;;5072989;28;20140;-60
2023/09/27 08:58:48;;;;;;;20.58;16.60;;;;;;;;;;5064418;28;20361;-58
2023/09/27 09:01:15;;;;;;;20.90;16.70;;;;;;;;;;5061111;28;20076;-59
2023/09/27 09:03:42;;;;;;;21.65;16.58;;;;;;;;;;5062054;28;20080;-59
2023/09/27 09:06:12;;;;;;;23.90;16.13;;;;;;;;;;5060021;28;20059;-58
2023/09/27 09:08:40;;;;;;;19.17;15.82;;;;;;;;;;5060617;28;20130;-59
2023/09/27 09:11:10;;;;;;;20.77;16.58;;;;;;;;;;5061724;28;20080;-58
2023/09/27 09:13:53;;;;;;;23.25;16.15;;;;;;;;;;5059799;28;20053;-59
2023/09/27 09:16:23;;;;;;;21.50;15.95;;;;;;;;;;5059373;28;20053;-58
2023/09/27 09:18:54;;;;;;;22.58;17.10;;;;;;;;;;5063602;28;20057;-58
2023/09/27 09:21:25;;;;;;;22.05;16.80;;;;;;;;;;5062829;28;20151;-57
2023/09/27 09:23:51;;;;;;;22.05;17.25;;;;;;;;;;5064884;28;20055;-58
2023/09/27 09:26:26;;;;;;;24.38;19.08;;;;;;;;;;5064014;28;20504;-59
2023/09/27 09:28:56;;;;;;;21.58;17.58;;;;;;;;;;5065034;28;20087;-59
2023/09/27 09:31:25;;;;;;;23.20;18.88;;;;;;;;;;5064256;28;20049;-57
2023/09/27 09:34:02;;;;;;;23.42;18.50;;;;;;;;;;5063716;28;20076;-57
2023/09/27 09:36:29;;;;;;;23.38;18.15;;;;;;;;;;5064402;28;20430;-58
2023/09/27 09:39:03;;;;;;;21.58;18.55;;;;;;;;;;5064926;28;20496;-58
2023/09/27 09:41:45;;;;;;;23.63;18.20;;;;;;;;;;5066327;28;20799;-59
2023/09/27 09:44:22;;;;;;;27.08;19.35;;;;;;;;;;5064703;28;20495;-58
2023/09/27 09:46:51;;;;;;;28.23;20.20;;;;;;;;;;5058618;28;20145;-59
2023/09/27 09:49:18;;;;;;;20.80;16.30;;;;;;;;;;5052450;28;20057;-59
2023/09/27 09:51:48;;;;;;;22.90;17.45;;;;;;;;;;5063383;28;20052;-58
2023/09/27 09:54:24;;;;;;;24.67;17.98;;;;;;;;;;5065833;28;20566;-59
2023/09/27 09:56:51;;;;;;;25.85;18.65;;;;;;;;;;5063782;28;20049;-59
2023/09/27 09:59:39;;;;;;;20.95;16.48;;;;;;;;;;5064537;28;20057;-58
2023/09/27 10:02:17;;;;;;;24.92;17.60;;;;;;;;;;5064116;28;20053;-59
2023/09/27 10:04:45;;;;;;;19.08;16.75;;;;;;;;;;5061893;28;20099;-59
2023/09/27 10:07:13;;;;;;;21.92;15.75;;;;;;;;;;5059920;28;20462;-58
2023/09/27 10:09:40;;;;;;;19.30;16.35;;;;;;;;;;5060692;28;20053;-58
2023/09/27 10:12:07;;;;;;;22.25;17.67;;;;;;;;;;5059543;28;20131;-57
2023/09/27 10:14:34;;;;;;;17.63;15.73;;;;;;;;;;5062879;28;20537;-59
2023/09/27 10:17:01;;;;;;;21.10;16.48;;;;;;;;;;5064752;28;20248;-58
2023/09/27 10:19:28;;;;;;;32.00;17.55;;;;;;;;;;5064954;28;20063;-58
2023/09/27 10:22:07;;;;;;;21.30;17.08;;;;;;;;;;5062941;28;20532;-57
2023/09/27 10:24:34;;;;;;;23.83;15.73;;;;;;;;;;5063320;28;20053;-59
2023/09/27 10:27:02;;;;;;;21.55;16.08;;;;;;;;;;5064047;28;20064;-58
2023/09/27 10:29:29;;;;;;;16.70;14.90;;;;;;;;;;5066963;28;20563;-59
2023/09/27 10:31:56;;;;;;;18.50;15.30;;;;;;;;;;5064853;28;20056;-58
2023/09/27 10:34:25;;;;;;;22.05;15.25;;;;;;;;;;5062897;28;20636;-58
2023/09/27 10:36:53;;;;;;;23.75;15.90;;;;;;;;;;5064191;28;20104;-58
2023/09/27 10:39:39;;;;;;;20.95;15.27;;;;;;;;;;5063182;28;20393;-59
2023/09/27 10:42:06;;;;;;;23.67;14.65;;;;;;;;;;5063731;28;20060;-58
2023/09/27 10:44:34;;;;;;;18.63;14.35;;;;;;;;;;5063922;28;20077;-58
2023/09/27 10:47:03;;;;;;;18.48;14.52;;;;;;;;;;5060938;28;20060;-59
2023/09/27 10:49:38;;;;;;;19.67;14.93;;;;;;;;;;5056282;28;20057;-57
2023/09/27 10:52:05;;;;;;;;;;;;;;;;;;5058265;28;20057;-59
2023/09/27 10:54:34;;;;;;;18.42;15.02;;;;;;;;;;5062112;28;43532;-59
2023/09/27 10:57:02;;;;;;;26.75;15.10;;;;;;;;;;5063857;28;20402;-58
2023/09/27 10:59:28;;;;;;;18.05;14.10;;;;;;;;;;5062832;28;21122;-58
2023/09/27 11:01:56;;;;;;;19.15;14.63;;;;;;;;;;5062974;28;20049;-58
2023/09/27 11:04:23;;;;;;;18.15;14.98;;;;;;;;;;5062658;28;20187;-59
2023/09/27 11:06:49;;;;;;;20.63;14.68;;;;;;;;;;5051935;28;20536;-59
2023/09/27 11:09:19;;;;;;;17.70;13.32;;;;;;;;;;5062886;28;20523;-59
2023/09/27 11:11:47;;;;;;;17.48;13.50;;;;;;;;;;5061924;28;20056;-58
2023/09/27 11:14:24;;;;;;;15.10;12.07;;;;;;;;;;5062766;28;20053;-59
2023/09/27 11:16:51;;;;;;;15.82;12.15;;;;;;;;;;5046915;28;20508;-59
2023/09/27 11:19:27;;;;;;;17.85;11.30;;;;;;;;;;5062762;28;20132;-58
2023/09/27 11:21:54;;;;;;;13.20;10.40;;;;;;;;;;5059208;28;20518;-57
2023/09/27 11:24:20;;;;;;;16.10;11.15;;;;;;;;;;5062943;28;20099;-59
2023/09/27 11:26:47;;;;;;;14.27;10.63;;;;;;;;;;5053362;28;20056;-58
2023/09/27 11:29:13;;;;;;;14.75;9.50;;;;;;;;;;5062885;28;20057;-58
2023/09/27 11:31:40;;;;;;;11.40;9.93;;;;;;;;;;5062026;28;20052;-58
2023/09/27 11:34:16;;;;;;;12.40;10.18;;;;;;;;;;5061916;28;20106;-58
2023/09/27 11:36:43;;;;;;;14.02;8.55;;;;;;;;;;5065235;28;20061;-58
2023/09/27 11:39:10;;;;;;;15.25;8.93;;;;;;;;;;5057749;28;20153;-59
2023/09/27 11:41:37;;;;;;;13.35;8.65;;;;;;;;;;5069359;28;20594;-58
2023/09/27 11:44:16;;;;;;;11.20;8.75;;;;;;;;;;5063843;28;20059;-58
2023/09/27 11:46:43;;;;;;;10.80;7.35;;;;;;;;;;5049482;28;20111;-58
2023/09/27 11:49:11;;;;;;;8.95;6.65;;;;;;;;;;5062586;28;20058;-58
2023/09/27 11:51:38;;;;;;;9.63;6.95;;;;;;;;;;5062413;28;20188;-58
2023/09/27 11:54:05;;;;;;;9.02;7.20;;;;;;;;;;5062701;28;20110;-57
2023/09/27 11:56:33;;;;;;;9.15;6.75;;;;;;;;;;5062614;28;20053;-58
2023/09/27 11:59:02;;;;;;;7.90;6.10;;;;;;;;;;5062744;28;20057;-58
2023/09/27 12:01:29;;;;;;;8.40;5.95;;;;;;;;;;5060208;28;20469;-58
2023/09/27 12:03:55;;;;;;;7.70;5.88;;;;;;;;;;5062118;28;20059;-58
2023/09/27 12:06:22;;;;;;;8.65;6.20;;;;;;;;;;5062398;28;20140;-57
2023/09/27 12:08:49;;;;;;;7.22;5.63;;;;;;;;;;5062156;28;20120;-59
2023/09/27 12:11:15;;;;;;;7.60;6.03;;;;;;;;;;5061835;28;20126;-57
2023/09/27 12:13:42;;;;;;;6.53;4.68;;;;;;;;;;5061970;28;20574;-56
2023/09/27 12:16:09;;;;;;;7.03;5.03;;;;;;;;;;5061635;28;20053;-58
2023/09/27 12:18:35;;;;;;;7.43;4.38;;;;;;;;;;5062454;28;20049;-58
2023/09/27 12:21:03;;;;;;;6.18;5.07;;;;;;;;;;5062882;28;20063;-59
2023/09/27 12:23:30;;;;;;;7.68;4.25;;;;;;;;;;5057380;28;20107;-59
2023/09/27 12:25:57;;;;;;;4.30;3.90;;;;;;;;;;5061475;28;20081;-59
2023/09/27 12:28:24;;;;;;;5.30;4.25;;;;;;;;;;5062344;28;20430;-56
2023/09/27 12:30:50;;;;;;;6.97;4.70;;;;;;;;;;5058906;28;20144;-59
2023/09/27 12:33:17;;;;;;;5.15;3.75;;;;;;;;;;5062213;28;20227;-58
2023/09/27 12:35:49;;;;;;;4.53;3.90;;;;;;;;;;5061583;28;20063;-58
2023/09/27 12:38:16;;;;;;;6.47;4.05;;;;;;;;;;5063922;28;20053;-59
2023/09/27 12:40:42;;;;;;;6.78;3.60;;;;;;;;;;5063023;28;20049;-59
2023/09/27 12:43:09;;;;;;;5.82;3.85;;;;;;;;;;5061919;28;20044;-59
2023/09/27 12:45:37;;;;;;;6.22;3.97;;;;;;;;;;5055802;28;20053;-58
2023/09/27 12:48:04;;;;;;;5.97;4.03;;;;;;;;;;5039251;28;20617;-59
2023/09/27 12:50:31;;;;;;;10.82;4.05;;;;;;;;;;5062171;28;20539;-58
2023/09/27 12:53:00;;;;;;;4.03;3.40;;;;;;;;;;5061290;28;20136;-59
2023/09/27 12:55:27;;;;;;;5.70;3.47;;;;;;;;;;5058844;28;20053;-58
2023/09/27 12:57:53;;;;;;;6.63;3.65;;;;;;;;;;5060527;28;20139;-59
2023/09/27 13:00:20;;;;;;;7.05;3.90;;;;;;;;;;5061782;28;20084;-59
2023/09/27 13:02:46;;;;;;;7.57;3.63;;;;;;;;;;5059630;28;20085;-59
2023/09/27 13:05:13;;;;;;;5.05;3.60;;;;;;;;;;5059193;28;20512;-59
2023/09/27 13:07:40;;;;;;;5.38;3.85;;;;;;;;;;5075259;28;20048;-58
2023/09/27 13:10:06;;;;;;;4.80;3.30;;;;;;;;;;5066427;28;20131;-59
2023/09/27 13:12:33;;;;;;;7.43;3.30;;;;;;;;;;5061752;28;20297;-58
2023/09/27 13:15:02;;;;;;;10.60;3.50;;;;;;;;;;5062582;28;20326;-57
2023/09/27 13:17:28;;;;;;;5.75;4.15;;;;;;;;;;5061906;28;20447;-58
2023/09/27 13:19:54;;;;;;;8.73;3.83;;;;;;;;;;5062025;28;20053;-59
2023/09/27 13:22:21;;;;;;;8.13;3.42;;;;;;;;;;5061026;28;20049;-59
2023/09/27 13:24:47;;;;;;;3.75;3.17;;;;;;;;;;5061735;28;20052;-59
2023/09/27 13:27:14;;;;;;;4.53;3.42;;;;;;;;;;5061821;28;20060;-59
2023/09/27 13:29:41;;;;;;;5.03;3.95;;;;;;;;;;5061556;28;20145;-58
2023/09/27 13:32:08;;;;;;;4.32;3.05;;;;;;;;;;5062081;28;20056;-57
2023/09/27 13:34:35;;;;;;;5.22;3.95;;;;;;;;;;5061679;28;20135;-58
2023/09/27 13:37:02;;;;;;;5.15;3.88;;;;;;;;;;5062166;28;20053;-59
2023/09/27 13:39:29;;;;;;;6.60;4.30;;;;;;;;;;5061179;28;20057;-59
2023/09/27 13:41:56;;;;;;;8.77;5.10;;;;;;;;;;5058967;28;20060;-60
2023/09/27 13:44:23;;;;;;;6.45;4.47;;;;;;;;;;5061897;28;20060;-57
2023/09/27 13:46:49;;;;;;;6.78;4.88;;;;;;;;;;5060689;28;20568;-59
2023/09/27 13:49:17;;;;;;;7.00;4.88;;;;;;;;;;5057857;28;20063;-57
2023/09/27 13:51:43;;;;;;;5.97;4.18;;;;;;;;;;5059568;28;20132;-59
2023/09/27 13:54:11;;;;;;;7.70;4.43;;;;;;;;;;5056149;28;20053;-59
2023/09/27 13:56:38;;;;;;;4.18;3.70;;;;;;;;;;5053709;28;20057;-59
2023/09/27 13:59:05;;;;;;;4.55;3.95;;;;;;;;;;5061922;28;20053;-55
2023/09/27 14:01:32;;;;;;;7.53;4.20;;;;;;;;;;5064184;28;20048;-59
2023/09/27 14:04:00;;;;;;;5.45;4.32;;;;;;;;;;5064059;28;20053;-55
2023/09/27 14:06:27;;;;;;;6.05;3.97;;;;;;;;;;5064013;28;20527;-59
2023/09/27 14:08:53;;;;;;;8.25;4.13;;;;;;;;;;5064183;28;20143;-58
2023/09/27 14:11:20;;;;;;;7.00;4.10;;;;;;;;;;5064544;28;20045;-58
2023/09/27 14:13:47;;;;;;;6.20;3.97;;;;;;;;;;5064281;28;20060;-56
2023/09/27 14:16:16;;;;;;;5.95;4.05;;;;;;;;;;5064360;28;20598;-60
2023/09/27 14:18:43;;;;;;;5.53;3.85;;;;;;;;;;5064718;28;20088;-59
2023/09/27 14:21:12;;;;;;;5.82;3.92;;;;;;;;;;5065285;28;20048;-57
2023/09/27 14:23:39;;;;;;;6.43;3.70;;;;;;;;;;5062767;28;20060;-59
2023/09/27 14:26:07;;;;;;;6.07;4.50;;;;;;;;;;5066012;28;20064;-57
2023/09/27 14:28:34;;;;;;;5.50;4.07;;;;;;;;;;5070746;28;20052;-60
2023/09/27 14:31:01;;;;;;;5.07;3.92;;;;;;;;;;5066442;28;20354;-60